CheckWX is a tool to help pilots better visualize weather data.  It is not intended as a substitute for an official pre-flight weather briefing.

07:14:53 UTC

13K METAR
Lt William M Milliken Airport
Eureka, Kansas, USA
Current

20 mins ago

K13K 230655Z AUTO 18007KT 10SM CLR 07/02 A3004 RMK AO2 T00750016
Observed
Feb-23 @ 06:55 UTC
Wind
  • 180° at 7 KTS
Visibility
10 SM
Flight Rules
VFR
Cloud Levels
  • Clear skies
Temperature
C / 46°F
Dewpoint
C / 36°F
Humidity
66%
Altimeter
30.04" Hg
Pressure
1017.32 hPa
Previous

40 mins ago

K13K 230635Z AUTO 17007KT 10SM CLR 08/02 A3004 RMK AO2 T00760015
Observed
Feb-23 @ 06:35 UTC
Wind
  • 170° at 7 KTS
Visibility
10 SM
Flight Rules
VFR
Cloud Levels
  • Clear skies
Temperature
C / 46°F
Dewpoint
C / 36°F
Humidity
66%
Altimeter
30.04" Hg
Pressure
1017.32 hPa
Previous

60 mins ago

K13K 230615Z AUTO 18007KT 10SM CLR 08/01 A3004 RMK AO2 T00790014
Observed
Feb-23 @ 06:15 UTC
Wind
  • 180° at 7 KTS
Visibility
10 SM
Flight Rules
VFR
Cloud Levels
  • Clear skies
Temperature
C / 46°F
Dewpoint
C / 34°F
Humidity
62%
Altimeter
30.04" Hg
Pressure
1017.32 hPa